sensor_id;sensor_type;location;lat;lon;timestamp;temperature;humidity
70726;DHT22;58304;53.104;6.022;2023-01-23T00:01:08;2.70;99.90
70726;DHT22;58304;53.104;6.022;2023-01-23T00:03:35;2.70;99.90
70726;DHT22;58304;53.104;6.022;2023-01-23T00:06:06;2.70;99.90
70726;DHT22;58304;53.104;6.022;2023-01-23T00:08:33;2.70;99.90
70726;DHT22;58304;53.104;6.022;2023-01-23T00:10:59;2.70;99.90
70726;DHT22;58304;53.104;6.022;2023-01-23T00:13:28;2.80;99.90
70726;DHT22;58304;53.104;6.022;2023-01-23T00:15:53;2.70;99.90
70726;DHT22;58304;53.104;6.022;2023-01-23T00:18:19;2.70;99.90
70726;DHT22;58304;53.104;6.022;2023-01-23T00:20:45;2.70;99.90
70726;DHT22;58304;53.104;6.022;2023-01-23T00:23:10;2.70;99.90
70726;DHT22;58304;53.104;6.022;2023-01-23T00:25:36;2.70;99.90
70726;DHT22;58304;53.104;6.022;2023-01-23T00:28:02;2.70;99.90
70726;DHT22;58304;53.104;6.022;2023-01-23T00:30:28;2.70;99.90
70726;DHT22;58304;53.104;6.022;2023-01-23T00:32:54;2.70;99.90
70726;DHT22;58304;53.104;6.022;2023-01-23T00:35:20;2.70;99.90
70726;DHT22;58304;53.104;6.022;2023-01-23T00:37:45;2.70;99.90
70726;DHT22;58304;53.104;6.022;2023-01-23T00:40:11;2.70;99.90
70726;DHT22;58304;53.104;6.022;2023-01-23T00:42:37;2.70;99.90
70726;DHT22;58304;53.104;6.022;2023-01-23T00:45:03;2.70;99.90
70726;DHT22;58304;53.104;6.022;2023-01-23T00:47:29;2.70;99.90
70726;DHT22;58304;53.104;6.022;2023-01-23T00:49:55;2.70;99.90
70726;DHT22;58304;53.104;6.022;2023-01-23T00:52:22;2.70;99.90
70726;DHT22;58304;53.104;6.022;2023-01-23T00:54:47;2.70;99.90
70726;DHT22;58304;53.104;6.022;2023-01-23T00:57:13;2.70;99.90
70726;DHT22;58304;53.104;6.022;2023-01-23T00:59:38;2.70;99.90
70726;DHT22;58304;53.104;6.022;2023-01-23T01:02:04;2.70;99.90
70726;DHT22;58304;53.104;6.022;2023-01-23T01:04:30;2.70;99.90
70726;DHT22;58304;53.104;6.022;2023-01-23T01:06:56;2.70;99.90
70726;DHT22;58304;53.104;6.022;2023-01-23T01:09:21;2.70;99.90
70726;DHT22;58304;53.104;6.022;2023-01-23T01:11:47;2.70;99.90
70726;DHT22;58304;53.104;6.022;2023-01-23T01:14:12;2.70;99.90
70726;DHT22;58304;53.104;6.022;2023-01-23T01:16:40;2.70;99.90
70726;DHT22;58304;53.104;6.022;2023-01-23T01:19:10;2.70;99.90
70726;DHT22;58304;53.104;6.022;2023-01-23T01:21:36;2.60;99.90
70726;DHT22;58304;53.104;6.022;2023-01-23T01:24:03;2.70;99.90
70726;DHT22;58304;53.104;6.022;2023-01-23T01:26:29;2.70;99.90
70726;DHT22;58304;53.104;6.022;2023-01-23T01:28:55;2.70;99.90
70726;DHT22;58304;53.104;6.022;2023-01-23T01:31:21;2.70;99.90
70726;DHT22;58304;53.104;6.022;2023-01-23T01:33:46;2.70;99.90
70726;DHT22;58304;53.104;6.022;2023-01-23T01:36:15;2.70;99.90
70726;DHT22;58304;53.104;6.022;2023-01-23T01:38:41;2.70;99.90
70726;DHT22;58304;53.104;6.022;2023-01-23T01:41:08;2.70;99.90
70726;DHT22;58304;53.104;6.022;2023-01-23T01:43:34;2.70;99.90
70726;DHT22;58304;53.104;6.022;2023-01-23T01:46:07;2.70;99.90
70726;DHT22;58304;53.104;6.022;2023-01-23T01:51:25;2.70;99.90
70726;DHT22;58304;53.104;6.022;2023-01-23T01:54:02;2.70;99.90
70726;DHT22;58304;53.104;6.022;2023-01-23T01:56:31;2.70;99.90
70726;DHT22;58304;53.104;6.022;2023-01-23T01:58:59;2.70;99.90
70726;DHT22;58304;53.104;6.022;2023-01-23T02:01:26;2.70;99.90
70726;DHT22;58304;53.104;6.022;2023-01-23T02:03:52;2.70;99.90
70726;DHT22;58304;53.104;6.022;2023-01-23T02:06:19;2.60;99.90
70726;DHT22;58304;53.104;6.022;2023-01-23T02:09:05;2.70;99.90
70726;DHT22;58304;53.104;6.022;2023-01-23T02:11:32;2.60;99.90
70726;DHT22;58304;53.104;6.022;2023-01-23T02:13:57;2.60;99.90
70726;DHT22;58304;53.104;6.022;2023-01-23T02:16:28;2.60;99.90
70726;DHT22;58304;53.104;6.022;2023-01-23T02:19:03;2.60;99.90
70726;DHT22;58304;53.104;6.022;2023-01-23T02:21:32;2.60;99.90
70726;DHT22;58304;53.104;6.022;2023-01-23T02:24:34;2.60;99.90
70726;DHT22;58304;53.104;6.022;2023-01-23T02:27:01;2.60;99.90
70726;DHT22;58304;53.104;6.022;2023-01-23T02:29:39;2.60;99.90
70726;DHT22;58304;53.104;6.022;2023-01-23T02:32:05;2.60;99.90
70726;DHT22;58304;53.104;6.022;2023-01-23T02:34:31;2.60;99.90
70726;DHT22;58304;53.104;6.022;2023-01-23T02:36:57;2.60;99.90
70726;DHT22;58304;53.104;6.022;2023-01-23T02:39:22;2.60;99.90
70726;DHT22;58304;53.104;6.022;2023-01-23T02:41:50;2.60;99.90
70726;DHT22;58304;53.104;6.022;2023-01-23T02:44:17;2.60;99.90
70726;DHT22;58304;53.104;6.022;2023-01-23T02:46:43;2.60;99.90
70726;DHT22;58304;53.104;6.022;2023-01-23T02:49:09;2.60;99.90
70726;DHT22;58304;53.104;6.022;2023-01-23T02:51:34;2.60;99.90
70726;DHT22;58304;53.104;6.022;2023-01-23T02:54:00;2.60;99.90
70726;DHT22;58304;53.104;6.022;2023-01-23T02:56:26;2.60;99.90
70726;DHT22;58304;53.104;6.022;2023-01-23T02:58:51;2.60;99.90
70726;DHT22;58304;53.104;6.022;2023-01-23T03:01:35;2.60;99.90
70726;DHT22;58304;53.104;6.022;2023-01-23T03:04:02;2.60;99.90
70726;DHT22;58304;53.104;6.022;2023-01-23T03:06:33;2.60;99.90
70726;DHT22;58304;53.104;6.022;2023-01-23T03:09:08;2.60;99.90
70726;DHT22;58304;53.104;6.022;2023-01-23T03:11:36;2.60;99.90
70726;DHT22;58304;53.104;6.022;2023-01-23T03:14:02;2.60;99.90
70726;DHT22;58304;53.104;6.022;2023-01-23T03:16:27;2.60;99.90
70726;DHT22;58304;53.104;6.022;2023-01-23T03:18:54;2.60;99.90
70726;DHT22;58304;53.104;6.022;2023-01-23T03:21:21;2.60;99.90
70726;DHT22;58304;53.104;6.022;2023-01-23T03:23:47;2.60;99.90
70726;DHT22;58304;53.104;6.022;2023-01-23T03:26:13;2.60;99.90
70726;DHT22;58304;53.104;6.022;2023-01-23T03:28:38;2.60;99.90
70726;DHT22;58304;53.104;6.022;2023-01-23T03:31:22;2.50;99.90
70726;DHT22;58304;53.104;6.022;2023-01-23T03:33:48;2.60;99.90
70726;DHT22;58304;53.104;6.022;2023-01-23T03:36:14;2.60;99.90
70726;DHT22;58304;53.104;6.022;2023-01-23T03:38:40;2.50;99.90
70726;DHT22;58304;53.104;6.022;2023-01-23T03:41:26;2.50;99.90
70726;DHT22;58304;53.104;6.022;2023-01-23T03:43:51;2.60;99.90
70726;DHT22;58304;53.104;6.022;2023-01-23T03:46:17;2.60;99.90
70726;DHT22;58304;53.104;6.022;2023-01-23T03:48:43;2.60;99.90
70726;DHT22;58304;53.104;6.022;2023-01-23T03:51:08;2.50;99.90
70726;DHT22;58304;53.104;6.022;2023-01-23T03:53:34;2.50;99.90
70726;DHT22;58304;53.104;6.022;2023-01-23T03:55:59;2.60;99.90
70726;DHT22;58304;53.104;6.022;2023-01-23T03:58:26;2.50;99.90
70726;DHT22;58304;53.104;6.022;2023-01-23T04:00:52;2.50;99.90
70726;DHT22;58304;53.104;6.022;2023-01-23T04:03:17;2.50;99.90
70726;DHT22;58304;53.104;6.022;2023-01-23T04:05:43;2.50;99.90
70726;DHT22;58304;53.104;6.022;2023-01-23T04:08:09;2.50;99.90
70726;DHT22;58304;53.104;6.022;2023-01-23T04:10:34;2.50;99.90
70726;DHT22;58304;53.104;6.022;2023-01-23T04:13:00;2.50;99.90
70726;DHT22;58304;53.104;6.022;2023-01-23T04:15:26;2.50;99.90
70726;DHT22;58304;53.104;6.022;2023-01-23T04:17:51;2.50;99.90
70726;DHT22;58304;53.104;6.022;2023-01-23T04:20:17;2.50;99.90
70726;DHT22;58304;53.104;6.022;2023-01-23T04:22:45;2.50;99.90
70726;DHT22;58304;53.104;6.022;2023-01-23T04:25:11;2.50;99.90
70726;DHT22;58304;53.104;6.022;2023-01-23T04:27:36;2.40;99.90
70726;DHT22;58304;53.104;6.022;2023-01-23T04:30:02;2.40;99.90
70726;DHT22;58304;53.104;6.022;2023-01-23T04:32:28;2.40;99.90
70726;DHT22;58304;53.104;6.022;2023-01-23T04:34:53;2.40;99.90
70726;DHT22;58304;53.104;6.022;2023-01-23T04:37:19;2.40;99.90
70726;DHT22;58304;53.104;6.022;2023-01-23T04:39:45;2.40;99.90
70726;DHT22;58304;53.104;6.022;2023-01-23T04:42:10;2.40;99.90
70726;DHT22;58304;53.104;6.022;2023-01-23T04:44:36;2.40;99.90
70726;DHT22;58304;53.104;6.022;2023-01-23T04:47:02;2.40;99.90
70726;DHT22;58304;53.104;6.022;2023-01-23T04:49:27;2.40;99.90
70726;DHT22;58304;53.104;6.022;2023-01-23T04:51:53;2.40;99.90
70726;DHT22;58304;53.104;6.022;2023-01-23T04:54:19;2.40;99.90
70726;DHT22;58304;53.104;6.022;2023-01-23T04:56:46;2.40;99.90
70726;DHT22;58304;53.104;6.022;2023-01-23T04:59:13;2.40;99.90
70726;DHT22;58304;53.104;6.022;2023-01-23T05:01:38;2.40;99.90
70726;DHT22;58304;53.104;6.022;2023-01-23T05:04:04;2.40;99.90
70726;DHT22;58304;53.104;6.022;2023-01-23T05:06:30;2.40;99.90
70726;DHT22;58304;53.104;6.022;2023-01-23T05:08:56;2.40;99.90
70726;DHT22;58304;53.104;6.022;2023-01-23T05:11:22;2.40;99.90
70726;DHT22;58304;53.104;6.022;2023-01-23T05:13:47;2.40;99.90
70726;DHT22;58304;53.104;6.022;2023-01-23T05:16:13;2.40;99.90
70726;DHT22;58304;53.104;6.022;2023-01-23T05:18:39;2.40;99.90
70726;DHT22;58304;53.104;6.022;2023-01-23T05:21:05;2.40;99.90
70726;DHT22;58304;53.104;6.022;2023-01-23T05:23:30;2.40;99.90
70726;DHT22;58304;53.104;6.022;2023-01-23T05:25:56;2.40;99.90
70726;DHT22;58304;53.104;6.022;2023-01-23T05:28:22;2.40;99.90
70726;DHT22;58304;53.104;6.022;2023-01-23T05:30:47;2.30;99.90
70726;DHT22;58304;53.104;6.022;2023-01-23T05:33:13;2.40;99.90
70726;DHT22;58304;53.104;6.022;2023-01-23T05:35:39;2.40;99.90
70726;DHT22;58304;53.104;6.022;2023-01-23T05:38:05;2.30;99.90
70726;DHT22;58304;53.104;6.022;2023-01-23T05:40:31;2.40;99.90
70726;DHT22;58304;53.104;6.022;2023-01-23T05:42:57;2.40;99.90
70726;DHT22;58304;53.104;6.022;2023-01-23T05:45:22;2.40;99.90
70726;DHT22;58304;53.104;6.022;2023-01-23T05:47:48;2.40;99.90
70726;DHT22;58304;53.104;6.022;2023-01-23T05:50:18;2.40;99.90
70726;DHT22;58304;53.104;6.022;2023-01-23T05:52:45;2.40;99.90
70726;DHT22;58304;53.104;6.022;2023-01-23T05:55:10;2.40;99.90
70726;DHT22;58304;53.104;6.022;2023-01-23T05:57:36;2.40;99.90
70726;DHT22;58304;53.104;6.022;2023-01-23T06:00:03;2.40;99.90
70726;DHT22;58304;53.104;6.022;2023-01-23T06:02:29;2.40;99.90
70726;DHT22;58304;53.104;6.022;2023-01-23T06:04:55;2.50;99.90
70726;DHT22;58304;53.104;6.022;2023-01-23T06:07:21;2.40;99.90
70726;DHT22;58304;53.104;6.022;2023-01-23T06:09:49;2.40;99.90
70726;DHT22;58304;53.104;6.022;2023-01-23T06:12:14;2.40;99.90
70726;DHT22;58304;53.104;6.022;2023-01-23T06:14:40;2.40;99.90
70726;DHT22;58304;53.104;6.022;2023-01-23T06:17:10;2.40;99.90
70726;DHT22;58304;53.104;6.022;2023-01-23T06:19:36;2.40;99.90
70726;DHT22;58304;53.104;6.022;2023-01-23T06:22:02;2.40;99.90
70726;DHT22;58304;53.104;6.022;2023-01-23T06:24:28;2.40;99.90
70726;DHT22;58304;53.104;6.022;2023-01-23T06:26:53;2.40;99.90
70726;DHT22;58304;53.104;6.022;2023-01-23T06:29:19;2.40;99.90
70726;DHT22;58304;53.104;6.022;2023-01-23T06:31:45;2.40;99.90
70726;DHT22;58304;53.104;6.022;2023-01-23T06:34:12;2.40;99.90
70726;DHT22;58304;53.104;6.022;2023-01-23T06:36:37;2.40;99.90
70726;DHT22;58304;53.104;6.022;2023-01-23T06:39:05;2.30;99.90
70726;DHT22;58304;53.104;6.022;2023-01-23T06:41:30;2.40;99.90
70726;DHT22;58304;53.104;6.022;2023-01-23T06:43:56;2.20;99.90
70726;DHT22;58304;53.104;6.022;2023-01-23T06:46:22;2.30;99.90
70726;DHT22;58304;53.104;6.022;2023-01-23T06:48:47;2.30;99.90
70726;DHT22;58304;53.104;6.022;2023-01-23T06:51:13;2.30;99.90
70726;DHT22;58304;53.104;6.022;2023-01-23T06:53:39;2.20;99.90
70726;DHT22;58304;53.104;6.022;2023-01-23T06:56:06;2.30;99.90
70726;DHT22;58304;53.104;6.022;2023-01-23T06:58:33;2.20;99.90
70726;DHT22;58304;53.104;6.022;2023-01-23T07:01:06;2.20;99.90
70726;DHT22;58304;53.104;6.022;2023-01-23T07:03:33;2.30;99.90
70726;DHT22;58304;53.104;6.022;2023-01-23T07:06:03;2.30;99.90
70726;DHT22;58304;53.104;6.022;2023-01-23T07:08:32;2.30;99.90
70726;DHT22;58304;53.104;6.022;2023-01-23T07:10:58;2.20;99.90
70726;DHT22;58304;53.104;6.022;2023-01-23T07:13:24;2.20;99.90
70726;DHT22;58304;53.104;6.022;2023-01-23T07:15:50;2.30;99.90
70726;DHT22;58304;53.104;6.022;2023-01-23T07:18:16;2.30;99.90
70726;DHT22;58304;53.104;6.022;2023-01-23T07:20:45;2.30;99.90
70726;DHT22;58304;53.104;6.022;2023-01-23T07:23:10;2.30;99.90
70726;DHT22;58304;53.104;6.022;2023-01-23T07:25:36;2.30;99.90
70726;DHT22;58304;53.104;6.022;2023-01-23T07:28:02;2.30;99.90
70726;DHT22;58304;53.104;6.022;2023-01-23T07:30:28;2.30;99.90
70726;DHT22;58304;53.104;6.022;2023-01-23T07:32:53;2.30;99.90
70726;DHT22;58304;53.104;6.022;2023-01-23T07:35:19;2.30;99.90
70726;DHT22;58304;53.104;6.022;2023-01-23T07:37:45;2.30;99.90
70726;DHT22;58304;53.104;6.022;2023-01-23T07:40:11;2.30;99.90
70726;DHT22;58304;53.104;6.022;2023-01-23T07:42:37;2.30;99.90
70726;DHT22;58304;53.104;6.022;2023-01-23T07:45:05;2.30;99.90
70726;DHT22;58304;53.104;6.022;2023-01-23T07:47:30;2.30;99.90
70726;DHT22;58304;53.104;6.022;2023-01-23T07:49:56;2.30;99.90
70726;DHT22;58304;53.104;6.022;2023-01-23T07:52:22;2.30;99.90
70726;DHT22;58304;53.104;6.022;2023-01-23T07:54:47;2.30;99.90
70726;DHT22;58304;53.104;6.022;2023-01-23T07:57:13;2.40;99.90
70726;DHT22;58304;53.104;6.022;2023-01-23T07:59:39;2.40;99.90
70726;DHT22;58304;53.104;6.022;2023-01-23T08:02:04;2.50;99.90
70726;DHT22;58304;53.104;6.022;2023-01-23T08:04:30;2.40;99.90
70726;DHT22;58304;53.104;6.022;2023-01-23T08:06:56;2.40;99.90
70726;DHT22;58304;53.104;6.022;2023-01-23T08:09:21;2.40;99.90
70726;DHT22;58304;53.104;6.022;2023-01-23T08:11:50;2.40;99.90
70726;DHT22;58304;53.104;6.022;2023-01-23T08:14:16;2.40;99.90
70726;DHT22;58304;53.104;6.022;2023-01-23T08:16:41;2.50;99.90
70726;DHT22;58304;53.104;6.022;2023-01-23T08:19:07;2.40;99.90
70726;DHT22;58304;53.104;6.022;2023-01-23T08:21:33;2.50;99.90
70726;DHT22;58304;53.104;6.022;2023-01-23T08:24:03;2.50;99.90
70726;DHT22;58304;53.104;6.022;2023-01-23T08:26:29;2.40;99.90
70726;DHT22;58304;53.104;6.022;2023-01-23T08:28:55;2.50;99.90
70726;DHT22;58304;53.104;6.022;2023-01-23T08:31:20;2.50;99.90
70726;DHT22;58304;53.104;6.022;2023-01-23T08:33:46;2.50;99.90
70726;DHT22;58304;53.104;6.022;2023-01-23T08:36:12;2.50;99.90
70726;DHT22;58304;53.104;6.022;2023-01-23T08:38:37;2.60;99.90
70726;DHT22;58304;53.104;6.022;2023-01-23T08:41:04;2.60;99.90
70726;DHT22;58304;53.104;6.022;2023-01-23T08:43:30;2.60;99.90
70726;DHT22;58304;53.104;6.022;2023-01-23T08:45:57;2.60;99.90
70726;DHT22;58304;53.104;6.022;2023-01-23T08:48:24;2.60;99.90
70726;DHT22;58304;53.104;6.022;2023-01-23T08:50:57;2.60;99.90
70726;DHT22;58304;53.104;6.022;2023-01-23T08:53:22;2.60;99.90
70726;DHT22;58304;53.104;6.022;2023-01-23T08:55:48;2.60;99.90
70726;DHT22;58304;53.104;6.022;2023-01-23T08:58:14;2.60;99.90
70726;DHT22;58304;53.104;6.022;2023-01-23T09:00:40;2.70;99.90
70726;DHT22;58304;53.104;6.022;2023-01-23T09:03:08;2.70;99.90
70726;DHT22;58304;53.104;6.022;2023-01-23T09:05:35;2.70;99.90
70726;DHT22;58304;53.104;6.022;2023-01-23T09:08:00;2.70;99.90
70726;DHT22;58304;53.104;6.022;2023-01-23T09:10:26;2.70;99.90
70726;DHT22;58304;53.104;6.022;2023-01-23T09:12:53;2.70;99.90
70726;DHT22;58304;53.104;6.022;2023-01-23T09:15:19;2.80;99.90
70726;DHT22;58304;53.104;6.022;2023-01-23T09:17:45;2.80;99.90
70726;DHT22;58304;53.104;6.022;2023-01-23T09:20:11;2.80;99.90
70726;DHT22;58304;53.104;6.022;2023-01-23T09:22:37;2.80;99.90
70726;DHT22;58304;53.104;6.022;2023-01-23T09:25:02;2.80;99.90
70726;DHT22;58304;53.104;6.022;2023-01-23T09:27:28;2.80;99.90
70726;DHT22;58304;53.104;6.022;2023-01-23T09:29:54;2.90;99.90
70726;DHT22;58304;53.104;6.022;2023-01-23T09:32:19;2.90;99.90
70726;DHT22;58304;53.104;6.022;2023-01-23T09:34:45;2.90;99.90
70726;DHT22;58304;53.104;6.022;2023-01-23T09:37:14;2.90;99.90
70726;DHT22;58304;53.104;6.022;2023-01-23T09:39:42;2.90;99.90
70726;DHT22;58304;53.104;6.022;2023-01-23T09:42:15;3.00;99.90
70726;DHT22;58304;53.104;6.022;2023-01-23T09:44:47;3.00;99.90
70726;DHT22;58304;53.104;6.022;2023-01-23T09:47:28;3.00;99.90
70726;DHT22;58304;53.104;6.022;2023-01-23T09:50:24;3.00;99.90
70726;DHT22;58304;53.104;6.022;2023-01-23T09:52:52;3.00;99.90
70726;DHT22;58304;53.104;6.022;2023-01-23T09:55:30;3.00;99.90
70726;DHT22;58304;53.104;6.022;2023-01-23T09:57:59;3.00;99.90
70726;DHT22;58304;53.104;6.022;2023-01-23T10:00:30;3.10;99.90
70726;DHT22;58304;53.104;6.022;2023-01-23T10:02:57;3.10;99.90
70726;DHT22;58304;53.104;6.022;2023-01-23T10:05:40;3.10;99.90
70726;DHT22;58304;53.104;6.022;2023-01-23T10:10:59;3.10;99.90
70726;DHT22;58304;53.104;6.022;2023-01-23T10:24:51;3.30;99.90
70726;DHT22;58304;53.104;6.022;2023-01-23T10:27:19;3.30;99.90
70726;DHT22;58304;53.104;6.022;2023-01-23T10:29:57;3.40;99.90
70726;DHT22;58304;53.104;6.022;2023-01-23T10:32:29;3.40;99.90
70726;DHT22;58304;53.104;6.022;2023-01-23T10:37:39;3.50;99.90
70726;DHT22;58304;53.104;6.022;2023-01-23T10:40:13;3.50;99.90
70726;DHT22;58304;53.104;6.022;2023-01-23T10:42:39;3.60;99.90
70726;DHT22;58304;53.104;6.022;2023-01-23T10:45:05;3.60;99.90
70726;DHT22;58304;53.104;6.022;2023-01-23T10:47:43;3.70;99.90
70726;DHT22;58304;53.104;6.022;2023-01-23T10:50:09;3.80;99.90
70726;DHT22;58304;53.104;6.022;2023-01-23T10:52:41;3.90;99.90
70726;DHT22;58304;53.104;6.022;2023-01-23T10:57:51;4.00;99.90
70726;DHT22;58304;53.104;6.022;2023-01-23T11:00:35;4.00;99.90
70726;DHT22;58304;53.104;6.022;2023-01-23T11:03:33;4.10;99.90
70726;DHT22;58304;53.104;6.022;2023-01-23T11:06:07;4.20;99.90
70726;DHT22;58304;53.104;6.022;2023-01-23T11:08:38;4.20;99.90
70726;DHT22;58304;53.104;6.022;2023-01-23T11:13:40;4.30;99.90
70726;DHT22;58304;53.104;6.022;2023-01-23T11:16:11;4.30;99.90
70726;DHT22;58304;53.104;6.022;2023-01-23T11:18:42;4.30;99.90
70726;DHT22;58304;53.104;6.022;2023-01-23T11:21:28;4.30;99.90
70726;DHT22;58304;53.104;6.022;2023-01-23T11:27:05;4.40;99.90
70726;DHT22;58304;53.104;6.022;2023-01-23T11:32:37;4.50;99.90
70726;DHT22;58304;53.104;6.022;2023-01-23T11:35:14;4.60;99.90
70726;DHT22;58304;53.104;6.022;2023-01-23T11:37:41;4.70;99.90
70726;DHT22;58304;53.104;6.022;2023-01-23T11:40:18;4.70;99.90
70726;DHT22;58304;53.104;6.022;2023-01-23T11:42:44;4.80;99.90
70726;DHT22;58304;53.104;6.022;2023-01-23T11:47:59;4.70;99.90
70726;DHT22;58304;53.104;6.022;2023-01-23T11:50:50;4.70;99.90
70726;DHT22;58304;53.104;6.022;2023-01-23T11:53:43;4.50;99.90
70726;DHT22;58304;53.104;6.022;2023-01-23T12:01:30;4.30;99.90
70726;DHT22;58304;53.104;6.022;2023-01-23T12:07:15;4.30;99.90
70726;DHT22;58304;53.104;6.022;2023-01-23T12:09:53;4.40;99.90
70726;DHT22;58304;53.104;6.022;2023-01-23T12:12:49;4.40;99.90
70726;DHT22;58304;53.104;6.022;2023-01-23T12:21:11;4.40;99.90
70726;DHT22;58304;53.104;6.022;2023-01-23T12:23:54;4.40;99.90
70726;DHT22;58304;53.104;6.022;2023-01-23T12:26:22;4.40;99.90
70726;DHT22;58304;53.104;6.022;2023-01-23T12:31:59;4.50;99.90
70726;DHT22;58304;53.104;6.022;2023-01-23T12:37:41;4.40;99.90
70726;DHT22;58304;53.104;6.022;2023-01-23T12:40:25;4.40;99.90
70726;DHT22;58304;53.104;6.022;2023-01-23T12:43:15;4.40;99.90
70726;DHT22;58304;53.104;6.022;2023-01-23T12:45:50;4.30;99.90
70726;DHT22;58304;53.104;6.022;2023-01-23T12:49:16;4.30;99.90
70726;DHT22;58304;53.104;6.022;2023-01-23T12:51:28;4.20;99.90
70726;DHT22;58304;53.104;6.022;2023-01-23T12:53:57;4.10;99.90
70726;DHT22;58304;53.104;6.022;2023-01-23T12:56:28;4.00;99.90
70726;DHT22;58304;53.104;6.022;2023-01-23T13:01:39;4.00;99.90
70726;DHT22;58304;53.104;6.022;2023-01-23T13:04:21;4.00;99.90
70726;DHT22;58304;53.104;6.022;2023-01-23T13:07:08;4.00;99.90
70726;DHT22;58304;53.104;6.022;2023-01-23T13:14:43;3.90;99.90
70726;DHT22;58304;53.104;6.022;2023-01-23T13:17:38;3.90;99.90
70726;DHT22;58304;53.104;6.022;2023-01-23T13:20:35;3.90;99.90
70726;DHT22;58304;53.104;6.022;2023-01-23T13:26:10;3.80;99.90
70726;DHT22;58304;53.104;6.022;2023-01-23T13:28:46;3.70;99.90
70726;DHT22;58304;53.104;6.022;2023-01-23T13:34:00;3.70;99.90
70726;DHT22;58304;53.104;6.022;2023-01-23T13:36:28;3.80;99.90
70726;DHT22;58304;53.104;6.022;2023-01-23T13:41:29;3.80;99.90
70726;DHT22;58304;53.104;6.022;2023-01-23T13:44:14;3.80;99.90
70726;DHT22;58304;53.104;6.022;2023-01-23T13:52:14;3.80;99.90
70726;DHT22;58304;53.104;6.022;2023-01-23T13:55:02;3.70;99.90
70726;DHT22;58304;53.104;6.022;2023-01-23T13:57:47;3.70;99.90
70726;DHT22;58304;53.104;6.022;2023-01-23T14:00:15;3.70;99.90
70726;DHT22;58304;53.104;6.022;2023-01-23T14:02:56;3.70;99.90
70726;DHT22;58304;53.104;6.022;2023-01-23T14:05:40;3.70;99.90
70726;DHT22;58304;53.104;6.022;2023-01-23T14:08:19;3.70;99.90
70726;DHT22;58304;53.104;6.022;2023-01-23T14:10:47;3.70;99.90
70726;DHT22;58304;53.104;6.022;2023-01-23T14:13:19;3.70;99.90
70726;DHT22;58304;53.104;6.022;2023-01-23T14:15:51;3.80;99.90
70726;DHT22;58304;53.104;6.022;2023-01-23T14:18:48;3.70;99.90
70726;DHT22;58304;53.104;6.022;2023-01-23T14:21:26;3.70;99.90
70726;DHT22;58304;53.104;6.022;2023-01-23T14:23:55;3.70;99.90
70726;DHT22;58304;53.104;6.022;2023-01-23T14:26:31;3.70;99.90
70726;DHT22;58304;53.104;6.022;2023-01-23T14:28:59;3.70;99.90
70726;DHT22;58304;53.104;6.022;2023-01-23T14:31:30;3.70;99.90
70726;DHT22;58304;53.104;6.022;2023-01-23T14:34:12;3.70;99.90
70726;DHT22;58304;53.104;6.022;2023-01-23T14:36:43;3.60;99.90
70726;DHT22;58304;53.104;6.022;2023-01-23T14:39:43;3.60;99.90
70726;DHT22;58304;53.104;6.022;2023-01-23T14:42:19;3.60;99.90
70726;DHT22;58304;53.104;6.022;2023-01-23T14:44:47;3.60;99.90
70726;DHT22;58304;53.104;6.022;2023-01-23T14:47:27;3.50;99.90
70726;DHT22;58304;53.104;6.022;2023-01-23T14:49:56;3.50;99.90
70726;DHT22;58304;53.104;6.022;2023-01-23T14:52:26;3.50;99.90
70726;DHT22;58304;53.104;6.022;2023-01-23T14:54:56;3.50;99.90
70726;DHT22;58304;53.104;6.022;2023-01-23T14:57:24;3.50;99.90
70726;DHT22;58304;53.104;6.022;2023-01-23T14:59:54;3.50;99.90
70726;DHT22;58304;53.104;6.022;2023-01-23T15:07:52;3.50;99.90
70726;DHT22;58304;53.104;6.022;2023-01-23T15:10:31;3.50;99.90
70726;DHT22;58304;53.104;6.022;2023-01-23T15:13:10;3.50;99.90
70726;DHT22;58304;53.104;6.022;2023-01-23T15:15:41;3.50;99.90
70726;DHT22;58304;53.104;6.022;2023-01-23T15:18:29;3.50;99.90
70726;DHT22;58304;53.104;6.022;2023-01-23T15:20:57;3.50;99.90
70726;DHT22;58304;53.104;6.022;2023-01-23T15:23:28;3.50;99.90
70726;DHT22;58304;53.104;6.022;2023-01-23T15:31:34;3.40;99.90
70726;DHT22;58304;53.104;6.022;2023-01-23T15:44:36;3.40;99.90
70726;DHT22;58304;53.104;6.022;2023-01-23T15:47:02;3.40;99.90
70726;DHT22;58304;53.104;6.022;2023-01-23T15:49:30;3.40;99.90
70726;DHT22;58304;53.104;6.022;2023-01-23T15:51:58;3.40;99.90
70726;DHT22;58304;53.104;6.022;2023-01-23T15:54:32;3.30;99.90
70726;DHT22;58304;53.104;6.022;2023-01-23T15:56:58;3.40;99.90
70726;DHT22;58304;53.104;6.022;2023-01-23T15:59:24;3.30;99.90
70726;DHT22;58304;53.104;6.022;2023-01-23T16:01:49;3.40;99.90
70726;DHT22;58304;53.104;6.022;2023-01-23T16:04:15;3.40;99.90
70726;DHT22;58304;53.104;6.022;2023-01-23T16:06:42;3.30;99.90
70726;DHT22;58304;53.104;6.022;2023-01-23T16:09:19;3.30;99.90
70726;DHT22;58304;53.104;6.022;2023-01-23T16:11:45;3.30;99.90
70726;DHT22;58304;53.104;6.022;2023-01-23T16:14:15;3.30;99.90
70726;DHT22;58304;53.104;6.022;2023-01-23T16:16:41;3.30;99.90
70726;DHT22;58304;53.104;6.022;2023-01-23T16:19:07;3.30;99.90
70726;DHT22;58304;53.104;6.022;2023-01-23T16:21:32;3.20;99.90
70726;DHT22;58304;53.104;6.022;2023-01-23T16:23:58;3.20;99.90
70726;DHT22;58304;53.104;6.022;2023-01-23T16:26:25;3.20;99.90
70726;DHT22;58304;53.104;6.022;2023-01-23T16:28:52;3.30;99.90
70726;DHT22;58304;53.104;6.022;2023-01-23T16:31:18;3.10;99.90
70726;DHT22;58304;53.104;6.022;2023-01-23T16:33:44;3.10;99.90
70726;DHT22;58304;53.104;6.022;2023-01-23T16:36:17;3.10;99.90
70726;DHT22;58304;53.104;6.022;2023-01-23T16:38:53;3.10;99.90
70726;DHT22;58304;53.104;6.022;2023-01-23T16:41:21;3.10;99.90
70726;DHT22;58304;53.104;6.022;2023-01-23T16:43:46;3.10;99.90
70726;DHT22;58304;53.104;6.022;2023-01-23T16:46:12;3.10;99.90
70726;DHT22;58304;53.104;6.022;2023-01-23T16:48:38;3.10;99.90
70726;DHT22;58304;53.104;6.022;2023-01-23T16:51:11;3.00;99.90
70726;DHT22;58304;53.104;6.022;2023-01-23T16:53:43;3.10;99.90
70726;DHT22;58304;53.104;6.022;2023-01-23T16:56:22;3.00;99.90
70726;DHT22;58304;53.104;6.022;2023-01-23T16:58:49;3.00;99.90
70726;DHT22;58304;53.104;6.022;2023-01-23T17:01:17;2.90;99.90
70726;DHT22;58304;53.104;6.022;2023-01-23T17:04:05;2.90;99.90
70726;DHT22;58304;53.104;6.022;2023-01-23T17:06:31;2.90;99.90
70726;DHT22;58304;53.104;6.022;2023-01-23T17:08:57;2.90;99.90
70726;DHT22;58304;53.104;6.022;2023-01-23T17:11:26;2.90;99.90
70726;DHT22;58304;53.104;6.022;2023-01-23T17:13:57;2.90;99.90
70726;DHT22;58304;53.104;6.022;2023-01-23T17:16:23;2.90;99.90
70726;DHT22;58304;53.104;6.022;2023-01-23T17:18:49;2.90;99.90
70726;DHT22;58304;53.104;6.022;2023-01-23T17:21:16;2.90;99.90
70726;DHT22;58304;53.104;6.022;2023-01-23T17:23:42;3.00;99.90
70726;DHT22;58304;53.104;6.022;2023-01-23T17:26:14;2.90;99.90
70726;DHT22;58304;53.104;6.022;2023-01-23T17:28:40;3.00;99.90
70726;DHT22;58304;53.104;6.022;2023-01-23T17:31:15;3.00;99.90
70726;DHT22;58304;53.104;6.022;2023-01-23T17:33:41;3.00;99.90
70726;DHT22;58304;53.104;6.022;2023-01-23T17:36:07;2.90;99.90